Disclaimer

Please do not use the information listed here in-flight or in-navigation, as they are not provided to us by the airports but are provided by volunteers, so they might be outdated.

Search


Regions


Airport information page

Radio informations:
Tower (TWR) - 124.15 MHz

Airport informations:
Latitude: 49° 13' 53.50" N
Longitude: 018° 36' 48.60" E
Elevation: 1020 feet - 311 meters
Operating hours: Remarks
Operating agency: Civil government, landing fees and diplomatic clearance may be required
Timezone: UTC+1(+2DT)
Fuel: N/A

Runway information:
06/24 - 3773 x 98 feet< - >1150 x 30 meters

Recent METARs:
LZZI 160630Z 10005KT 9999 FEW053 M00/M01 Q1032
LZZI 160700Z 09004KT 9999 FEW053 M00/M01 Q1032
LZZI 160730Z 11004KT 9999 FEW037 00/M01 Q1032

Airport on the map: